Aérodrome :
LOGIN :

S'inscrire | Disclaimer

   EN    FR    IT 

 










Légende :    VFR   VFR Marginal   IFR   IFR Intensif   IFR Très Intensif
Visi : 
Plafond : 
>= 8 km
>= 3000ft
5 à 8 km
1000 à 3000 ft
1500m à 5 km
500 à 1000 ft
800 à 1500m
200 à 500 ft
< 800m
< 200 ft
Symboles :   Orages  Brouillard  Fortes neiges  Fortes précipitations  Vent > 20 kt
SIGMETs :   Divers  Orages  Givrage  Turbulence  Onde Orograph.  Cendres Volcan.






- Altitude de l'aérodrome : 291 ft
- Code IATA : ORY


LFPO - Paris-Orly

DERNIER METAR :
  • 232130Z 24009KT 200V260 9999 SCT010 SCT046 BKN100 16/15 Q1003 NOSIG

METARs EXPIRÉS :
  • 232100Z 23009KT 7000 -RA SCT010 FEW033TCU BKN046 BKN100 17/16 Q1003 TEMPO BKN012 SCT030TCU
  • 232030Z 22006KT 7000 -RA SCT010 BKN020 BKN100 17/16 Q1003 TEMPO BKN012
  • 232000Z 20004KT 9999 -RA SCT026 BKN073 BKN100 17/16 Q1003 NOSIG
  • 231930Z 20005KT 9999 FEW043 SCT073 BKN100 17/16 Q1003 NOSIG
  • 231900Z 21007KT 9999 FEW043 BKN073 BKN100 17/16 Q1003 NOSIG

TAF TAF LFPO
Valide du 23 à 18h jusqu'au 25 à 00h UTC


231700Z 2318/2424 21010G20KT 9999 BKN040
TEMPO 2318/2322 22012G25KT 6000 -SHRA SCT030CB
PROB40
TEMPO 2318/2319 23015G30KT 2500 -TSRA SCT030CB
BECMG 2322/2401 24009KT SCT040
BECMG 2407/2410 20010G20KT BKN030
TEMPO 2410/2420 6000 -SHRA SCT030CB
PROB40
TEMPO 2414/2418 22020G30KT 4000 -TSRA SCT030CB
BECMG 2420/2422 CAVOK
ATIS : +33 1 49 75 65 80



MET'MAP, la Météo Aéronautique d'un coup d'oeil ! - Copyright ORBIFLY Décembre 2007 - Disclaimer

ORBIFLY MET'MAP TEAM :

Programmation & Développement : Alexandra Zaïnal
Sur une idée originale de : Baudouin d'Aumeries
Assistance à la programmation : Marc-Olivier Méhu
Soutien technique & logistique : Manuel Goepfert

Contact : metmap@orbifly.com




SOURCES & CREDITS :

   NOAA